ZKDAY YMCL-YHUG
Flight info
| Callsign | ZKDAY |
|---|---|
| Flight time | 1h 36m |
| Altitude | 4000 |
| Route | OLDER |
| Aircraft | C172/L-SFG/C |
Departure
| Time | 2026-04-15 13:45 |
|---|---|
| Airport | Mount Coolon Airport (YMCL) |
Arrival
| Time | 2026-04-15 15:22 |
|---|---|
| Airport | Hughenden Airport (YHUG) |
| Time | Latitude | Longitude | Altitude | Speed | Heading |
|---|---|---|---|---|---|
| 2026-04-15 13:41 | -21.38391 | 147.33576 | 751 ft | 0 kts | 278° |
| 2026-04-15 13:43 | -21.38391 | 147.33574 | 751 ft | 1 kts | 252° |
| 2026-04-15 13:43 | -21.38400 | 147.33572 | 750 ft | 5 kts | 162° |
| 2026-04-15 13:44 | -21.38426 | 147.33616 | 749 ft | 10 kts | 117° |
| 2026-04-15 13:44 | -21.38474 | 147.33648 | 752 ft | 9 kts | 213° |
| 2026-04-15 13:44 | -21.38546 | 147.33520 | 752 ft | 40 kts | 243° |
| 2026-04-15 13:44 | -21.38736 | 147.33125 | 746 ft | 77 kts | 248° |
| 2026-04-15 13:45 | -21.38972 | 147.32578 | 836 ft | 86 kts | 244° |
| 2026-04-15 13:45 | -21.39174 | 147.31945 | 982 ft | 92 kts | 251° |
| 2026-04-15 13:45 | -21.39308 | 147.31230 | 1079 ft | 105 kts | 274° |
| 2026-04-15 13:47 | -21.34991 | 147.29453 | 2111 ft | 106 kts | 348° |
| 2026-04-15 13:47 | -21.34322 | 147.29153 | 2283 ft | 103 kts | 351° |
| 2026-04-15 13:47 | -21.33665 | 147.28873 | 2472 ft | 101 kts | 351° |
| 2026-04-15 13:48 | -21.33015 | 147.28601 | 2656 ft | 99 kts | 352° |
| 2026-04-15 13:48 | -21.32385 | 147.28347 | 2831 ft | 95 kts | 352° |
| 2026-04-15 13:48 | -21.31768 | 147.28096 | 2995 ft | 94 kts | 351° |
| 2026-04-15 13:48 | -21.31156 | 147.27852 | 3165 ft | 93 kts | 352° |
| 2026-04-15 13:49 | -21.30550 | 147.27610 | 3345 ft | 93 kts | 352° |
| 2026-04-15 13:49 | -21.29945 | 147.27368 | 3524 ft | 93 kts | 351° |
| 2026-04-15 13:49 | -21.29337 | 147.27126 | 3701 ft | 94 kts | 350° |
| 2026-04-15 13:49 | -21.28728 | 147.26881 | 3876 ft | 94 kts | 349° |
| 2026-04-15 13:50 | -21.28118 | 147.26636 | 4041 ft | 94 kts | 348° |
| 2026-04-15 13:50 | -21.27509 | 147.26391 | 4199 ft | 93 kts | 347° |
| 2026-04-15 13:50 | -21.26913 | 147.26150 | 4359 ft | 90 kts | 347° |
| 2026-04-15 13:50 | -21.26335 | 147.25916 | 4519 ft | 88 kts | 346° |
| 2026-04-15 13:51 | -21.25777 | 147.25690 | 4684 ft | 84 kts | 346° |
| 2026-04-15 13:51 | -21.25246 | 147.25473 | 4854 ft | 80 kts | 344° |
| 2026-04-15 13:51 | -21.24728 | 147.25265 | 4989 ft | 80 kts | 344° |
| 2026-04-15 13:51 | -21.24204 | 147.25058 | 5108 ft | 81 kts | 344° |
| 2026-04-15 13:52 | -21.23677 | 147.24847 | 5241 ft | 81 kts | 345° |
| 2026-04-15 13:52 | -21.23141 | 147.24637 | 5348 ft | 84 kts | 344° |
| 2026-04-15 13:52 | -21.22573 | 147.24413 | 5431 ft | 90 kts | 345° |
| 2026-04-15 13:52 | -21.21968 | 147.24178 | 5514 ft | 95 kts | 344° |
| 2026-04-15 13:53 | -21.21332 | 147.23923 | 5580 ft | 100 kts | 343° |
| 2026-04-15 13:53 | -21.20673 | 147.23660 | 5644 ft | 102 kts | 343° |
| 2026-04-15 13:53 | -21.20005 | 147.23389 | 5701 ft | 103 kts | 343° |
| 2026-04-15 13:53 | -21.19332 | 147.23119 | 5777 ft | 104 kts | 341° |
| 2026-04-15 13:54 | -21.18759 | 147.22641 | 5841 ft | 109 kts | 309° |
| 2026-04-15 13:54 | -21.18563 | 147.21852 | 5914 ft | 113 kts | 277° |
| 2026-04-15 13:54 | -21.18483 | 147.21019 | 5979 ft | 112 kts | 282° |
| 2026-04-15 13:54 | -21.18369 | 147.20170 | 5990 ft | 117 kts | 283° |
| 2026-04-15 13:55 | -21.18252 | 147.19294 | 5996 ft | 120 kts | 283° |
| 2026-04-15 13:55 | -21.18142 | 147.18405 | 5997 ft | 118 kts | 281° |
| 2026-04-15 13:55 | -21.18041 | 147.17549 | 6012 ft | 115 kts | 280° |
| 2026-04-15 13:55 | -21.17942 | 147.16709 | 6001 ft | 113 kts | 282° |
| 2026-04-15 13:56 | -21.17848 | 147.15885 | 5988 ft | 110 kts | 280° |
| 2026-04-15 13:56 | -21.17761 | 147.15085 | 5978 ft | 107 kts | 282° |
| 2026-04-15 13:56 | -21.17671 | 147.14300 | 5986 ft | 106 kts | 282° |
| 2026-04-15 13:56 | -21.17580 | 147.13508 | 5988 ft | 107 kts | 282° |
| 2026-04-15 13:57 | -21.17485 | 147.12715 | 5985 ft | 107 kts | 283° |
| 2026-04-15 13:57 | -21.17395 | 147.11920 | 5995 ft | 108 kts | 281° |
| 2026-04-15 13:57 | -21.17303 | 147.11118 | 5998 ft | 109 kts | 280° |
| 2026-04-15 13:57 | -21.17209 | 147.10311 | 5997 ft | 110 kts | 281° |
| 2026-04-15 13:58 | -21.17115 | 147.09498 | 5995 ft | 110 kts | 281° |
| 2026-04-15 13:58 | -21.17020 | 147.08694 | 5997 ft | 108 kts | 281° |
| 2026-04-15 13:58 | -21.16928 | 147.07893 | 5998 ft | 108 kts | 282° |
| 2026-04-15 13:58 | -21.16836 | 147.07098 | 5997 ft | 107 kts | 282° |
| 2026-04-15 13:59 | -21.16745 | 147.06305 | 5998 ft | 107 kts | 281° |
| 2026-04-15 13:59 | -21.16654 | 147.05517 | 5997 ft | 106 kts | 281° |
| 2026-04-15 13:59 | -21.16563 | 147.04732 | 6001 ft | 106 kts | 281° |
| 2026-04-15 13:59 | -21.16474 | 147.03954 | 5999 ft | 107 kts | 281° |
| 2026-04-15 14:00 | -21.16382 | 147.03168 | 5993 ft | 106 kts | 282° |
| 2026-04-15 14:00 | -21.16292 | 147.02387 | 5987 ft | 105 kts | 281° |
| 2026-04-15 14:00 | -21.16203 | 147.01619 | 5994 ft | 104 kts | 282° |
| 2026-04-15 14:00 | -21.16116 | 147.00851 | 6002 ft | 104 kts | 281° |
| 2026-04-15 14:01 | -21.15933 | 146.99301 | 6002 ft | 106 kts | 281° |
| 2026-04-15 14:01 | -21.15842 | 146.98518 | 5996 ft | 106 kts | 281° |
| 2026-04-15 14:01 | -21.15750 | 146.97733 | 5999 ft | 106 kts | 282° |
| 2026-04-15 14:02 | -21.15660 | 146.96948 | 5989 ft | 106 kts | 282° |
| 2026-04-15 14:02 | -21.15569 | 146.96172 | 5985 ft | 104 kts | 282° |
| 2026-04-15 14:02 | -21.15481 | 146.95402 | 5995 ft | 104 kts | 281° |
| 2026-04-15 14:02 | -21.15392 | 146.94632 | 5998 ft | 104 kts | 282° |
| 2026-04-15 14:03 | -21.15302 | 146.93861 | 6000 ft | 105 kts | 282° |
| 2026-04-15 14:03 | -21.15211 | 146.93081 | 5999 ft | 106 kts | 283° |
| 2026-04-15 14:03 | -21.15118 | 146.92299 | 6002 ft | 106 kts | 282° |
| 2026-04-15 14:03 | -21.15027 | 146.91508 | 5998 ft | 107 kts | 282° |
| 2026-04-15 14:04 | -21.14933 | 146.90714 | 5998 ft | 107 kts | 282° |
| 2026-04-15 14:04 | -21.14841 | 146.89925 | 5999 ft | 106 kts | 281° |
| 2026-04-15 14:04 | -21.14750 | 146.89139 | 6005 ft | 106 kts | 281° |
| 2026-04-15 14:04 | -21.14658 | 146.88351 | 6000 ft | 107 kts | 282° |
| 2026-04-15 14:05 | -21.14565 | 146.87560 | 6004 ft | 107 kts | 281° |
| 2026-04-15 14:05 | -21.14472 | 146.86768 | 5993 ft | 107 kts | 282° |
| 2026-04-15 14:05 | -21.14381 | 146.85984 | 5987 ft | 105 kts | 281° |
| 2026-04-15 14:05 | -21.14288 | 146.85215 | 5978 ft | 103 kts | 283° |
| 2026-04-15 14:06 | -21.14199 | 146.84468 | 5981 ft | 100 kts | 282° |
| 2026-04-15 14:06 | -21.14115 | 146.83736 | 5985 ft | 98 kts | 283° |
| 2026-04-15 14:06 | -21.14029 | 146.83013 | 5993 ft | 97 kts | 282° |
| 2026-04-15 14:06 | -21.13945 | 146.82298 | 5987 ft | 96 kts | 282° |
| 2026-04-15 14:07 | -21.13861 | 146.81586 | 5999 ft | 96 kts | 281° |
| 2026-04-15 14:07 | -21.13776 | 146.80874 | 6003 ft | 96 kts | 281° |
| 2026-04-15 14:07 | -21.13692 | 146.80158 | 6005 ft | 98 kts | 281° |
| 2026-04-15 14:07 | -21.13605 | 146.79434 | 6001 ft | 99 kts | 281° |
| 2026-04-15 14:08 | -21.13518 | 146.78702 | 6002 ft | 99 kts | 281° |
| 2026-04-15 14:08 | -21.13431 | 146.77965 | 5986 ft | 99 kts | 282° |
| 2026-04-15 14:08 | -21.13344 | 146.77232 | 5999 ft | 99 kts | 281° |
| 2026-04-15 14:08 | -21.13259 | 146.76495 | 5994 ft | 100 kts | 282° |
| 2026-04-15 14:09 | -21.13173 | 146.75757 | 5995 ft | 100 kts | 283° |
| 2026-04-15 14:09 | -21.13086 | 146.75017 | 5995 ft | 100 kts | 282° |
| 2026-04-15 14:09 | -21.12998 | 146.74275 | 5995 ft | 100 kts | 281° |
| 2026-04-15 14:09 | -21.12910 | 146.73534 | 5989 ft | 100 kts | 281° |
| 2026-04-15 14:10 | -21.12822 | 146.72795 | 5996 ft | 101 kts | 281° |
| 2026-04-15 14:10 | -21.12735 | 146.72048 | 5990 ft | 101 kts | 281° |
| 2026-04-15 14:10 | -21.12647 | 146.71303 | 5995 ft | 101 kts | 283° |
| 2026-04-15 14:10 | -21.12559 | 146.70555 | 5993 ft | 101 kts | 282° |
| 2026-04-15 14:11 | -21.12472 | 146.69814 | 5984 ft | 100 kts | 282° |
| 2026-04-15 14:11 | -21.12388 | 146.69076 | 5987 ft | 100 kts | 282° |
| 2026-04-15 14:11 | -21.12302 | 146.68344 | 5990 ft | 100 kts | 282° |
| 2026-04-15 14:11 | -21.12212 | 146.67590 | 5997 ft | 104 kts | 283° |
| 2026-04-15 14:12 | -21.12116 | 146.66804 | 6002 ft | 109 kts | 282° |
| 2026-04-15 14:12 | -21.12016 | 146.65986 | 6001 ft | 112 kts | 282° |
| 2026-04-15 14:12 | -21.11915 | 146.65146 | 5990 ft | 115 kts | 282° |
| 2026-04-15 14:12 | -21.11812 | 146.64296 | 5989 ft | 116 kts | 282° |
| 2026-04-15 14:13 | -21.11712 | 146.63439 | 5987 ft | 116 kts | 281° |
| 2026-04-15 14:13 | -21.11611 | 146.62580 | 5988 ft | 116 kts | 281° |
| 2026-04-15 14:13 | -21.11510 | 146.61724 | 5993 ft | 116 kts | 282° |
| 2026-04-15 14:13 | -21.11409 | 146.60865 | 5986 ft | 116 kts | 281° |
| 2026-04-15 14:14 | -21.11309 | 146.60009 | 5987 ft | 116 kts | 281° |
| 2026-04-15 14:14 | -21.11208 | 146.59157 | 5984 ft | 115 kts | 282° |
| 2026-04-15 14:14 | -21.11109 | 146.58312 | 5984 ft | 114 kts | 282° |
| 2026-04-15 14:14 | -21.11010 | 146.57482 | 5994 ft | 114 kts | 282° |
| 2026-04-15 14:15 | -21.10910 | 146.56629 | 5994 ft | 114 kts | 281° |
| 2026-04-15 14:15 | -21.10810 | 146.55784 | 5996 ft | 115 kts | 280° |
| 2026-04-15 14:15 | -21.10708 | 146.54937 | 5994 ft | 115 kts | 281° |
| 2026-04-15 14:15 | -21.10608 | 146.54089 | 5990 ft | 115 kts | 282° |
| 2026-04-15 14:16 | -21.10508 | 146.53254 | 5992 ft | 114 kts | 282° |
| 2026-04-15 14:16 | -21.10408 | 146.52408 | 5998 ft | 115 kts | 281° |
| 2026-04-15 14:16 | -21.10307 | 146.51558 | 5996 ft | 115 kts | 281° |
| 2026-04-15 14:16 | -21.10204 | 146.50704 | 5997 ft | 116 kts | 281° |
| 2026-04-15 14:17 | -21.10101 | 146.49840 | 5986 ft | 115 kts | 281° |
| 2026-04-15 14:17 | -21.09999 | 146.48985 | 5990 ft | 116 kts | 281° |
| 2026-04-15 14:17 | -21.09897 | 146.48136 | 5989 ft | 116 kts | 281° |
| 2026-04-15 14:17 | -21.09796 | 146.47279 | 5990 ft | 116 kts | 280° |
| 2026-04-15 14:18 | -21.09693 | 146.46423 | 5999 ft | 116 kts | 281° |
| 2026-04-15 14:18 | -21.09624 | 146.45842 | 5992 ft | 116 kts | 281° |
| 2026-04-15 14:18 | -21.09520 | 146.44983 | 5997 ft | 117 kts | 282° |
| 2026-04-15 14:18 | -21.09417 | 146.44119 | 5995 ft | 117 kts | 281° |
| 2026-04-15 14:19 | -21.09314 | 146.43256 | 5988 ft | 117 kts | 282° |
| 2026-04-15 14:19 | -21.09212 | 146.42398 | 5983 ft | 115 kts | 282° |
| 2026-04-15 14:19 | -21.09112 | 146.41548 | 5988 ft | 115 kts | 281° |
| 2026-04-15 14:19 | -21.09011 | 146.40700 | 5992 ft | 115 kts | 282° |
| 2026-04-15 14:20 | -21.08911 | 146.39851 | 5988 ft | 115 kts | 281° |
| 2026-04-15 14:20 | -21.08811 | 146.39005 | 5987 ft | 115 kts | 281° |
| 2026-04-15 14:20 | -21.08707 | 146.38161 | 5991 ft | 114 kts | 282° |
| 2026-04-15 14:20 | -21.08607 | 146.37318 | 5987 ft | 114 kts | 282° |
| 2026-04-15 14:21 | -21.08506 | 146.36478 | 5994 ft | 114 kts | 282° |
| 2026-04-15 14:21 | -21.08404 | 146.35635 | 6000 ft | 115 kts | 282° |
| 2026-04-15 14:21 | -21.08302 | 146.34796 | 6000 ft | 116 kts | 282° |
| 2026-04-15 14:21 | -21.08197 | 146.33928 | 6000 ft | 117 kts | 282° |
| 2026-04-15 14:22 | -21.08093 | 146.33065 | 5991 ft | 117 kts | 282° |
| 2026-04-15 14:22 | -21.07990 | 146.32205 | 5990 ft | 116 kts | 282° |
| 2026-04-15 14:22 | -21.07888 | 146.31346 | 5992 ft | 116 kts | 282° |
| 2026-04-15 14:22 | -21.07786 | 146.30483 | 5987 ft | 117 kts | 282° |
| 2026-04-15 14:23 | -21.07683 | 146.29621 | 5983 ft | 117 kts | 282° |
| 2026-04-15 14:23 | -21.07579 | 146.28760 | 5988 ft | 117 kts | 282° |
| 2026-04-15 14:23 | -21.07475 | 146.27899 | 5988 ft | 117 kts | 282° |
| 2026-04-15 14:23 | -21.07372 | 146.27037 | 5988 ft | 117 kts | 282° |
| 2026-04-15 14:24 | -21.07267 | 146.26174 | 5988 ft | 117 kts | 282° |
| 2026-04-15 14:24 | -21.07163 | 146.25310 | 5980 ft | 117 kts | 282° |
| 2026-04-15 14:24 | -21.07061 | 146.24461 | 5993 ft | 117 kts | 281° |
| 2026-04-15 14:24 | -21.06956 | 146.23595 | 5991 ft | 117 kts | 282° |
| 2026-04-15 14:25 | -21.06850 | 146.22719 | 5989 ft | 117 kts | 281° |
| 2026-04-15 14:25 | -21.06745 | 146.21853 | 5984 ft | 117 kts | 281° |
| 2026-04-15 14:25 | -21.06640 | 146.20986 | 5987 ft | 117 kts | 282° |
| 2026-04-15 14:25 | -21.06538 | 146.20132 | 5987 ft | 117 kts | 282° |
| 2026-04-15 14:26 | -21.06433 | 146.19265 | 5991 ft | 118 kts | 282° |
| 2026-04-15 14:26 | -21.06328 | 146.18397 | 5980 ft | 118 kts | 282° |
| 2026-04-15 14:26 | -21.06223 | 146.17531 | 5983 ft | 117 kts | 281° |
| 2026-04-15 14:26 | -21.06120 | 146.16670 | 5985 ft | 116 kts | 282° |
| 2026-04-15 14:27 | -21.06016 | 146.15811 | 5987 ft | 116 kts | 281° |
| 2026-04-15 14:27 | -21.05912 | 146.14953 | 5981 ft | 116 kts | 281° |
| 2026-04-15 14:27 | -21.05807 | 146.14094 | 5990 ft | 117 kts | 281° |
| 2026-04-15 14:27 | -21.05702 | 146.13231 | 5990 ft | 117 kts | 281° |
| 2026-04-15 14:28 | -21.05597 | 146.12368 | 5987 ft | 117 kts | 282° |
| 2026-04-15 14:28 | -21.05492 | 146.11506 | 5983 ft | 117 kts | 282° |
| 2026-04-15 14:28 | -21.05387 | 146.10640 | 5990 ft | 117 kts | 282° |
| 2026-04-15 14:28 | -21.05282 | 146.09773 | 5990 ft | 118 kts | 282° |
| 2026-04-15 14:29 | -21.05176 | 146.08905 | 5985 ft | 117 kts | 282° |
| 2026-04-15 14:29 | -21.05071 | 146.08040 | 5986 ft | 117 kts | 282° |
| 2026-04-15 14:29 | -21.04966 | 146.07172 | 5988 ft | 117 kts | 282° |
| 2026-04-15 14:29 | -21.04861 | 146.06306 | 5983 ft | 117 kts | 282° |
| 2026-04-15 14:30 | -21.04755 | 146.05442 | 5986 ft | 117 kts | 282° |
| 2026-04-15 14:30 | -21.04650 | 146.04580 | 5987 ft | 117 kts | 283° |
| 2026-04-15 14:30 | -21.04546 | 146.03717 | 5991 ft | 117 kts | 283° |
| 2026-04-15 14:30 | -21.04440 | 146.02851 | 5991 ft | 118 kts | 283° |
| 2026-04-15 14:31 | -21.04334 | 146.01980 | 5996 ft | 118 kts | 283° |
| 2026-04-15 14:31 | -21.04225 | 146.01105 | 5995 ft | 119 kts | 283° |
| 2026-04-15 14:31 | -21.04118 | 146.00225 | 5994 ft | 119 kts | 282° |
| 2026-04-15 14:31 | -21.04010 | 145.99346 | 5980 ft | 119 kts | 282° |
| 2026-04-15 14:32 | -21.03904 | 145.98470 | 5983 ft | 119 kts | 282° |
| 2026-04-15 14:32 | -21.03797 | 145.97592 | 5992 ft | 119 kts | 283° |
| 2026-04-15 14:32 | -21.03688 | 145.96712 | 5993 ft | 120 kts | 283° |
| 2026-04-15 14:32 | -21.03580 | 145.95826 | 5988 ft | 120 kts | 283° |
| 2026-04-15 14:33 | -21.03472 | 145.94945 | 5990 ft | 119 kts | 282° |
| 2026-04-15 14:33 | -21.03365 | 145.94065 | 5991 ft | 119 kts | 282° |
| 2026-04-15 14:33 | -21.03257 | 145.93184 | 5991 ft | 119 kts | 283° |
| 2026-04-15 14:33 | -21.03149 | 145.92303 | 5988 ft | 119 kts | 283° |
| 2026-04-15 14:34 | -21.03042 | 145.91426 | 5985 ft | 119 kts | 282° |
| 2026-04-15 14:34 | -21.02935 | 145.90552 | 5986 ft | 118 kts | 282° |
| 2026-04-15 14:34 | -21.02828 | 145.89680 | 5984 ft | 118 kts | 283° |
| 2026-04-15 14:34 | -21.02721 | 145.88808 | 5988 ft | 118 kts | 283° |
| 2026-04-15 14:35 | -21.02614 | 145.87935 | 5988 ft | 118 kts | 283° |
| 2026-04-15 14:35 | -21.02507 | 145.87062 | 5990 ft | 118 kts | 282° |
| 2026-04-15 14:35 | -21.02399 | 145.86187 | 5985 ft | 118 kts | 282° |
| 2026-04-15 14:35 | -21.02292 | 145.85315 | 5989 ft | 118 kts | 282° |
| 2026-04-15 14:36 | -21.02185 | 145.84442 | 5986 ft | 118 kts | 283° |
| 2026-04-15 14:36 | -21.02078 | 145.83570 | 5986 ft | 118 kts | 282° |
| 2026-04-15 14:36 | -21.01970 | 145.82700 | 5988 ft | 118 kts | 283° |
| 2026-04-15 14:36 | -21.01863 | 145.81829 | 5993 ft | 118 kts | 282° |
| 2026-04-15 14:37 | -21.01754 | 145.80951 | 5998 ft | 119 kts | 283° |
| 2026-04-15 14:37 | -21.01644 | 145.80069 | 5994 ft | 120 kts | 283° |
| 2026-04-15 14:37 | -21.01535 | 145.79185 | 5984 ft | 120 kts | 283° |
| 2026-04-15 14:37 | -21.01427 | 145.78304 | 5987 ft | 120 kts | 283° |
| 2026-04-15 14:38 | -21.01318 | 145.77420 | 5979 ft | 120 kts | 283° |
| 2026-04-15 14:38 | -21.01210 | 145.76537 | 5990 ft | 120 kts | 282° |
| 2026-04-15 14:38 | -21.01098 | 145.75653 | 5981 ft | 120 kts | 284° |
| 2026-04-15 14:38 | -21.00985 | 145.74772 | 5978 ft | 119 kts | 284° |
| 2026-04-15 14:39 | -21.00876 | 145.73893 | 5984 ft | 119 kts | 284° |
| 2026-04-15 14:39 | -21.00770 | 145.73018 | 5985 ft | 119 kts | 284° |
| 2026-04-15 14:39 | -21.00662 | 145.72138 | 5992 ft | 119 kts | 283° |
| 2026-04-15 14:39 | -21.00554 | 145.71256 | 5987 ft | 120 kts | 283° |
| 2026-04-15 14:40 | -21.00445 | 145.70369 | 5989 ft | 120 kts | 283° |
| 2026-04-15 14:40 | -21.00334 | 145.69482 | 5991 ft | 121 kts | 284° |
| 2026-04-15 14:40 | -21.00223 | 145.68589 | 5985 ft | 121 kts | 284° |
| 2026-04-15 14:40 | -21.00112 | 145.67694 | 5994 ft | 122 kts | 283° |
| 2026-04-15 14:41 | -20.99999 | 145.66791 | 5997 ft | 123 kts | 283° |
| 2026-04-15 14:41 | -20.99884 | 145.65877 | 5996 ft | 124 kts | 283° |
| 2026-04-15 14:41 | -20.99770 | 145.64960 | 5990 ft | 124 kts | 283° |
| 2026-04-15 14:41 | -20.99655 | 145.64042 | 5993 ft | 125 kts | 283° |
| 2026-04-15 14:42 | -20.99541 | 145.63124 | 5988 ft | 124 kts | 283° |
| 2026-04-15 14:42 | -20.99429 | 145.62210 | 5980 ft | 123 kts | 284° |
| 2026-04-15 14:42 | -20.99316 | 145.61296 | 5976 ft | 122 kts | 283° |
| 2026-04-15 14:42 | -20.99207 | 145.60403 | 5974 ft | 120 kts | 283° |
| 2026-04-15 14:43 | -20.99098 | 145.59521 | 5976 ft | 119 kts | 283° |
| 2026-04-15 14:43 | -20.98990 | 145.58641 | 5981 ft | 119 kts | 283° |
| 2026-04-15 14:43 | -20.98881 | 145.57764 | 5983 ft | 119 kts | 283° |
| 2026-04-15 14:43 | -20.98772 | 145.56892 | 5985 ft | 118 kts | 284° |
| 2026-04-15 14:44 | -20.98663 | 145.56021 | 5987 ft | 118 kts | 284° |
| 2026-04-15 14:44 | -20.98554 | 145.55149 | 5987 ft | 119 kts | 284° |
| 2026-04-15 14:44 | -20.98445 | 145.54283 | 5991 ft | 119 kts | 284° |
| 2026-04-15 14:44 | -20.98334 | 145.53393 | 5992 ft | 120 kts | 284° |
| 2026-04-15 14:45 | -20.98224 | 145.52509 | 5982 ft | 120 kts | 284° |
| 2026-04-15 14:45 | -20.98113 | 145.51624 | 5982 ft | 120 kts | 284° |
| 2026-04-15 14:45 | -20.98002 | 145.50742 | 5983 ft | 119 kts | 284° |
| 2026-04-15 14:45 | -20.97894 | 145.49874 | 5987 ft | 119 kts | 285° |
| 2026-04-15 14:46 | -20.97783 | 145.48981 | 5985 ft | 119 kts | 285° |
| 2026-04-15 14:46 | -20.97674 | 145.48112 | 5985 ft | 120 kts | 285° |
| 2026-04-15 14:46 | -20.97562 | 145.47229 | 5990 ft | 120 kts | 284° |
| 2026-04-15 14:46 | -20.97450 | 145.46340 | 5985 ft | 121 kts | 284° |
| 2026-04-15 14:47 | -20.97339 | 145.45452 | 5984 ft | 120 kts | 284° |
| 2026-04-15 14:47 | -20.97229 | 145.44564 | 5976 ft | 120 kts | 284° |
| 2026-04-15 14:47 | -20.97118 | 145.43685 | 5977 ft | 119 kts | 284° |
| 2026-04-15 14:47 | -20.97010 | 145.42808 | 5984 ft | 119 kts | 284° |
| 2026-04-15 14:48 | -20.96898 | 145.41918 | 5982 ft | 119 kts | 285° |
| 2026-04-15 14:48 | -20.96788 | 145.41052 | 5989 ft | 120 kts | 285° |
| 2026-04-15 14:48 | -20.96676 | 145.40168 | 5989 ft | 120 kts | 284° |
| 2026-04-15 14:48 | -20.96564 | 145.39280 | 5988 ft | 121 kts | 284° |
| 2026-04-15 14:49 | -20.96451 | 145.38388 | 5987 ft | 122 kts | 284° |
| 2026-04-15 14:49 | -20.96335 | 145.37479 | 6021 ft | 126 kts | 284° |
| 2026-04-15 14:49 | -20.96210 | 145.36519 | 6038 ft | 132 kts | 285° |
| 2026-04-15 14:49 | -20.96080 | 145.35530 | 6021 ft | 136 kts | 284° |
| 2026-04-15 14:50 | -20.95950 | 145.34524 | 6003 ft | 138 kts | 284° |
| 2026-04-15 14:50 | -20.95821 | 145.33509 | 5973 ft | 137 kts | 284° |
| 2026-04-15 14:50 | -20.95698 | 145.32513 | 5941 ft | 132 kts | 284° |
| 2026-04-15 14:50 | -20.95584 | 145.31564 | 5936 ft | 126 kts | 284° |
| 2026-04-15 14:51 | -20.95475 | 145.30651 | 5948 ft | 122 kts | 284° |
| 2026-04-15 14:51 | -20.95365 | 145.29760 | 5903 ft | 120 kts | 284° |
| 2026-04-15 14:51 | -20.95255 | 145.28894 | 5824 ft | 116 kts | 284° |
| 2026-04-15 14:51 | -20.95149 | 145.28050 | 5744 ft | 113 kts | 284° |
| 2026-04-15 14:52 | -20.95045 | 145.27226 | 5660 ft | 111 kts | 284° |
| 2026-04-15 14:52 | -20.94944 | 145.26418 | 5589 ft | 109 kts | 286° |
| 2026-04-15 14:52 | -20.94845 | 145.25621 | 5517 ft | 108 kts | 286° |
| 2026-04-15 14:52 | -20.94745 | 145.24831 | 5450 ft | 107 kts | 285° |
| 2026-04-15 14:53 | -20.94644 | 145.24038 | 5400 ft | 108 kts | 285° |
| 2026-04-15 14:53 | -20.94540 | 145.23239 | 5325 ft | 109 kts | 285° |
| 2026-04-15 14:53 | -20.94437 | 145.22437 | 5234 ft | 108 kts | 285° |
| 2026-04-15 14:53 | -20.94335 | 145.21636 | 5172 ft | 109 kts | 285° |
| 2026-04-15 14:54 | -20.94232 | 145.20826 | 5112 ft | 112 kts | 286° |
| 2026-04-15 14:54 | -20.94121 | 145.19975 | 5053 ft | 119 kts | 286° |
| 2026-04-15 14:54 | -20.94002 | 145.19080 | 4978 ft | 124 kts | 285° |
| 2026-04-15 14:54 | -20.93882 | 145.18157 | 4910 ft | 127 kts | 285° |
| 2026-04-15 14:55 | -20.93762 | 145.17216 | 4835 ft | 128 kts | 284° |
| 2026-04-15 14:55 | -20.93644 | 145.16268 | 4768 ft | 129 kts | 283° |
| 2026-04-15 14:55 | -20.93536 | 145.15306 | 4698 ft | 131 kts | 283° |
| 2026-04-15 14:55 | -20.93417 | 145.14341 | 4614 ft | 131 kts | 283° |
| 2026-04-15 14:56 | -20.93292 | 145.13378 | 4526 ft | 131 kts | 284° |
| 2026-04-15 14:56 | -20.93165 | 145.12413 | 4447 ft | 131 kts | 284° |
| 2026-04-15 14:56 | -20.93040 | 145.11451 | 4377 ft | 131 kts | 284° |
| 2026-04-15 14:56 | -20.92956 | 145.10810 | 4342 ft | 132 kts | 284° |
| 2026-04-15 14:57 | -20.92828 | 145.09835 | 4293 ft | 133 kts | 284° |
| 2026-04-15 14:57 | -20.92703 | 145.08851 | 4208 ft | 133 kts | 283° |
| 2026-04-15 14:57 | -20.92573 | 145.07877 | 4117 ft | 133 kts | 283° |
| 2026-04-15 14:57 | -20.92446 | 145.06895 | 4041 ft | 135 kts | 283° |
| 2026-04-15 14:58 | -20.92322 | 145.05913 | 4045 ft | 128 kts | 282° |
| 2026-04-15 14:58 | -20.92211 | 145.04995 | 4068 ft | 121 kts | 284° |
| 2026-04-15 14:58 | -20.92103 | 145.04109 | 4059 ft | 121 kts | 284° |
| 2026-04-15 14:58 | -20.91988 | 145.03210 | 4026 ft | 125 kts | 283° |
| 2026-04-15 14:59 | -20.91872 | 145.02309 | 4073 ft | 120 kts | 283° |
| 2026-04-15 14:59 | -20.91762 | 145.01431 | 4089 ft | 119 kts | 284° |
| 2026-04-15 14:59 | -20.91650 | 145.00557 | 4099 ft | 119 kts | 286° |
| 2026-04-15 14:59 | -20.91535 | 144.99666 | 4102 ft | 123 kts | 285° |
| 2026-04-15 15:00 | -20.91413 | 144.98739 | 4102 ft | 128 kts | 285° |
| 2026-04-15 15:00 | -20.91283 | 144.97766 | 4027 ft | 135 kts | 285° |
| 2026-04-15 15:00 | -20.91149 | 144.96758 | 3934 ft | 138 kts | 284° |
| 2026-04-15 15:00 | -20.91014 | 144.95729 | 3854 ft | 140 kts | 284° |
| 2026-04-15 15:01 | -20.90881 | 144.94690 | 3777 ft | 142 kts | 283° |
| 2026-04-15 15:01 | -20.90748 | 144.93641 | 3716 ft | 143 kts | 283° |
| 2026-04-15 15:01 | -20.90620 | 144.92616 | 3762 ft | 137 kts | 284° |
| 2026-04-15 15:01 | -20.90496 | 144.91616 | 3779 ft | 135 kts | 283° |
| 2026-04-15 15:02 | -20.90371 | 144.90623 | 3782 ft | 134 kts | 283° |
| 2026-04-15 15:02 | -20.90245 | 144.89635 | 3788 ft | 134 kts | 283° |
| 2026-04-15 15:02 | -20.90118 | 144.88651 | 3792 ft | 133 kts | 283° |
| 2026-04-15 15:02 | -20.89991 | 144.87671 | 3795 ft | 133 kts | 283° |
| 2026-04-15 15:03 | -20.89864 | 144.86690 | 3798 ft | 134 kts | 284° |
| 2026-04-15 15:03 | -20.89736 | 144.85702 | 3799 ft | 134 kts | 284° |
| 2026-04-15 15:03 | -20.89607 | 144.84710 | 3796 ft | 135 kts | 284° |
| 2026-04-15 15:03 | -20.89479 | 144.83726 | 3793 ft | 136 kts | 284° |
| 2026-04-15 15:04 | -20.89348 | 144.82714 | 3792 ft | 136 kts | 284° |
| 2026-04-15 15:04 | -20.89220 | 144.81717 | 3794 ft | 135 kts | 284° |
| 2026-04-15 15:04 | -20.89095 | 144.80740 | 3787 ft | 134 kts | 284° |
| 2026-04-15 15:04 | -20.88966 | 144.79745 | 3788 ft | 133 kts | 284° |
| 2026-04-15 15:05 | -20.88843 | 144.78781 | 3797 ft | 132 kts | 284° |
| 2026-04-15 15:05 | -20.88718 | 144.77809 | 3800 ft | 132 kts | 284° |
| 2026-04-15 15:05 | -20.88592 | 144.76838 | 3802 ft | 132 kts | 284° |
| 2026-04-15 15:05 | -20.88468 | 144.75852 | 3799 ft | 132 kts | 284° |
| 2026-04-15 15:06 | -20.88226 | 144.73922 | 3800 ft | 132 kts | 285° |
| 2026-04-15 15:06 | -20.88102 | 144.72956 | 3794 ft | 131 kts | 285° |
| 2026-04-15 15:06 | -20.87977 | 144.71980 | 3799 ft | 131 kts | 285° |
| 2026-04-15 15:07 | -20.87852 | 144.71018 | 3801 ft | 131 kts | 286° |
| 2026-04-15 15:07 | -20.87729 | 144.70070 | 3795 ft | 130 kts | 285° |
| 2026-04-15 15:07 | -20.87604 | 144.69111 | 3792 ft | 130 kts | 285° |
| 2026-04-15 15:07 | -20.87479 | 144.68153 | 3794 ft | 130 kts | 285° |
| 2026-04-15 15:08 | -20.87355 | 144.67193 | 3795 ft | 130 kts | 285° |
| 2026-04-15 15:08 | -20.87231 | 144.66239 | 3793 ft | 129 kts | 284° |
| 2026-04-15 15:08 | -20.87107 | 144.65290 | 3795 ft | 128 kts | 285° |
| 2026-04-15 15:08 | -20.86985 | 144.64345 | 3794 ft | 128 kts | 286° |
| 2026-04-15 15:09 | -20.86859 | 144.63387 | 3794 ft | 129 kts | 286° |
| 2026-04-15 15:09 | -20.86735 | 144.62440 | 3793 ft | 129 kts | 286° |
| 2026-04-15 15:09 | -20.86611 | 144.61488 | 3792 ft | 130 kts | 286° |
| 2026-04-15 15:09 | -20.86487 | 144.60542 | 3788 ft | 131 kts | 285° |
| 2026-04-15 15:10 | -20.86361 | 144.59576 | 3784 ft | 131 kts | 285° |
| 2026-04-15 15:10 | -20.86235 | 144.58604 | 3781 ft | 130 kts | 285° |
| 2026-04-15 15:10 | -20.86113 | 144.57665 | 3778 ft | 129 kts | 285° |
| 2026-04-15 15:10 | -20.85991 | 144.56722 | 3785 ft | 128 kts | 285° |
| 2026-04-15 15:11 | -20.85869 | 144.55787 | 3784 ft | 126 kts | 285° |
| 2026-04-15 15:11 | -20.85747 | 144.54857 | 3791 ft | 126 kts | 285° |
| 2026-04-15 15:11 | -20.85624 | 144.53922 | 3798 ft | 128 kts | 285° |
| 2026-04-15 15:11 | -20.85499 | 144.52974 | 3788 ft | 129 kts | 285° |
| 2026-04-15 15:12 | -20.85373 | 144.52024 | 3785 ft | 129 kts | 285° |
| 2026-04-15 15:12 | -20.85248 | 144.51069 | 3783 ft | 130 kts | 285° |
| 2026-04-15 15:12 | -20.85123 | 144.50113 | 3778 ft | 129 kts | 285° |
| 2026-04-15 15:12 | -20.85000 | 144.49166 | 3777 ft | 128 kts | 285° |
| 2026-04-15 15:13 | -20.84877 | 144.48227 | 3782 ft | 127 kts | 285° |
| 2026-04-15 15:13 | -20.84754 | 144.47291 | 3789 ft | 128 kts | 285° |
| 2026-04-15 15:13 | -20.84630 | 144.46352 | 3782 ft | 127 kts | 285° |
| 2026-04-15 15:13 | -20.84507 | 144.45416 | 3785 ft | 127 kts | 285° |
| 2026-04-15 15:14 | -20.84383 | 144.44476 | 3788 ft | 128 kts | 285° |
| 2026-04-15 15:14 | -20.84262 | 144.43532 | 3745 ft | 126 kts | 285° |
| 2026-04-15 15:14 | -20.84142 | 144.42616 | 3738 ft | 123 kts | 285° |
| 2026-04-15 15:14 | -20.84027 | 144.41726 | 3766 ft | 120 kts | 286° |
| 2026-04-15 15:15 | -20.83909 | 144.40837 | 3781 ft | 121 kts | 286° |
| 2026-04-15 15:15 | -20.83790 | 144.39939 | 3794 ft | 122 kts | 286° |
| 2026-04-15 15:15 | -20.83670 | 144.39041 | 3794 ft | 122 kts | 286° |
| 2026-04-15 15:15 | -20.83549 | 144.38143 | 3806 ft | 123 kts | 285° |
| 2026-04-15 15:16 | -20.83428 | 144.37231 | 3813 ft | 125 kts | 285° |
| 2026-04-15 15:16 | -20.83305 | 144.36301 | 3810 ft | 127 kts | 285° |
| 2026-04-15 15:16 | -20.83179 | 144.35359 | 3810 ft | 128 kts | 284° |
| 2026-04-15 15:16 | -20.83053 | 144.34409 | 3808 ft | 130 kts | 285° |
| 2026-04-15 15:17 | -20.82926 | 144.33449 | 3793 ft | 131 kts | 284° |
| 2026-04-15 15:17 | -20.82800 | 144.32492 | 3793 ft | 130 kts | 286° |
| 2026-04-15 15:17 | -20.82675 | 144.31539 | 3795 ft | 130 kts | 286° |
| 2026-04-15 15:17 | -20.82549 | 144.30584 | 3800 ft | 130 kts | 286° |
| 2026-04-15 15:18 | -20.82420 | 144.29624 | 3808 ft | 131 kts | 286° |
| 2026-04-15 15:18 | -20.82293 | 144.28658 | 3793 ft | 131 kts | 284° |
| 2026-04-15 15:18 | -20.82165 | 144.27697 | 3788 ft | 130 kts | 285° |
| 2026-04-15 15:18 | -20.82039 | 144.26741 | 3795 ft | 130 kts | 285° |
| 2026-04-15 15:19 | -20.81902 | 144.25780 | 3586 ft | 136 kts | 289° |
| 2026-04-15 15:19 | -20.81637 | 144.24784 | 3146 ft | 135 kts | 299° |
| 2026-04-15 15:19 | -20.81220 | 144.23939 | 2796 ft | 126 kts | 311° |
| 2026-04-15 15:19 | -20.80735 | 144.23136 | 2247 ft | 132 kts | 313° |
| 2026-04-15 15:20 | -20.80260 | 144.22318 | 1955 ft | 123 kts | 309° |
| 2026-04-15 15:20 | -20.79816 | 144.21572 | 1732 ft | 113 kts | 308° |
| 2026-04-15 15:20 | -20.79587 | 144.20765 | 1484 ft | 123 kts | 262° |
| 2026-04-15 15:20 | -20.80092 | 144.20341 | 1397 ft | 93 kts | 144° |
| 2026-04-15 15:21 | -20.80339 | 144.20946 | 1240 ft | 87 kts | 105° |
| 2026-04-15 15:21 | -20.80612 | 144.21565 | 1124 ft | 96 kts | 121° |
| 2026-04-15 15:21 | -20.81004 | 144.22118 | 1051 ft | 83 kts | 125° |
| 2026-04-15 15:21 | -20.81296 | 144.22536 | 1039 ft | 59 kts | 129° |
| 2026-04-15 15:22 | -20.81474 | 144.22755 | 1039 ft | 20 kts | 148° |
| 2026-04-15 15:22 | -20.81576 | 144.22747 | 1037 ft | 14 kts | 206° |
| 2026-04-15 15:22 | -20.81624 | 144.22725 | 1036 ft | 0 kts | 196° |